Home > Products > Valid Products > TAF

000
FTUS41 KBOX 272323
TAFACK
TAF
KACK 272323Z 2800/2824 23006KT P6SM SCT200
     FM280600 22012KT 1/2SM FG SCT050 WS020/24040KT
     FM280800 22013KT 2SM BR SCT001 BKN008 WS020/25040KT
     FM281100 23014KT 5SM BR SCT001
     FM281300 23015KT P6SM SCT100=



000
FTUS41 KBOX 272036 AAA
TAFBAF
TAF AMD
KBAF 272036Z 2721/2818 19012KT P6SM SCT070
      TEMPO 2721/2723 4SM TSRA OVC040CB
     FM280100 19006KT P6SM SCT040
     FM280800 00000KT 3SM BR SCT060
     FM281100 00000KT P6SM BKN090
     FM281400 20004KT P6SM SCT100=



000
FTUS41 KBOX 271732
TAFPVD
TAF
KPVD 271732Z 2718/2818 16010KT P6SM SCT080
     FM272300 21009KT P6SM SCT100=



000
FTUS41 KBOX 271732
TAFBOS
TAF
KBOS 271732Z 2718/2824 09010KT P6SM SCT250
     FM272100 14007KT P6SM SCT060
     FM280000 22009KT P6SM SCT050
     FM281000 23008KT 6SM BR SCT005
     FM281300 24007KT P6SM SCT110
     FM281700 20009KT P6SM BKN050=



000
FTUS41 KBOX 271732
TAFBDL
TAF
KBDL 271732Z 2718/2824 18008KT P6SM SCT070
     FM272100 19009KT P6SM BKN060
     FM280900 17005KT 3SM BR SCT060
     FM281200 19004KT P6SM BKN080
     FM281900 21008KT P6SM VCSH BKN060=



000
FTUS41 KBOX 271732
TAFORH
TAF
KORH 271732Z 2718/2818 13007KT P6SM SCT060
     FM280200 23009KT P6SM SCT060
     FM281100 25008KT P6SM BKN090
     FM281300 26008KT P6SM SCT090=



000
FTUS41 KBOX 271732
TAFACK
TAF
KACK 271732Z 2718/2818 22010KT P6SM SCT150
     FM272200 22011KT P6SM SCT140
     FM280600 22012KT 1/4SM FG SCT001 BKN008 WS020/24040KT
     FM281100 23014KT 5SM BR BKN070
     FM281300 23015KT P6SM BKN090=



000
FTUS41 KBOX 271732
TAFBAF
TAF
KBAF 271732Z 2718/2818 19005KT P6SM SCT070
     FM280100 19006KT P6SM SCT040
     FM280800 00000KT 3SM BR SCT060
     FM281100 00000KT P6SM BKN090
     FM281400 20004KT P6SM SCT100=



000
FTUS41 KBOX 270540
TAFORH
TAF
KORH 270540Z 2706/2806 VRB03KT P6SM BKN200
     FM271400 11004KT P6SM BKN080
     FM271700 19007KT P6SM BKN060
     FM272100 21010KT P6SM SCT110
     FM280500 25007KT P6SM SCT100=



000
FTUS41 KBOX 270540
TAFPVD
TAF
KPVD 270540Z 2706/2806 17005KT P6SM FEW200
     FM271500 16007KT P6SM BKN070
     FM271700 17008KT P6SM SCT070
     FM272000 19009KT P6SM BKN070
     FM272200 19009KT P6SM SCT090
     FM280300 21008KT P6SM SCT100 WS020/24040KT=



000
FTUS41 KBOX 270540
TAFBOS
TAF
KBOS 270540Z 2706/2812 12005KT P6SM BKN150
     FM271200 07004KT P6SM BKN100
     FM271500 13005KT P6SM BKN080
     FM272200 18009KT P6SM BKN200
     FM272300 20009KT P6SM SCT200=



000
FTUS41 KBOX 270540
TAFBDL
TAF
KBDL 270540Z 2706/2812 17006KT P6SM BKN120 BKN250
     FM270900 00000KT P6SM BKN090
     FM271500 17004KT P6SM VCSH BKN050
     FM271800 20009KT P6SM VCSH BKN050
     FM272000 19010KT P6SM BKN090
     FM280000 19006KT P6SM BKN100
     FM280900 16004KT 3SM BR SCT200
     FM281100 17004KT P6SM SCT100=



000
FTUS41 KBOX 270540
TAFBAF
TAF
KBAF 270540Z 2706/2806 VRB03KT P6SM BKN120
     FM271400 VRB03KT P6SM VCSH BKN070
     FM271700 18007KT P6SM VCSH BKN070
     FM272100 19009KT P6SM BKN090
     FM280000 19005KT P6SM BKN100
     FM280400 20004KT P6SM SCT200=



000
FTUS41 KBOX 270540
TAFACK
TAF
KACK 270540Z 2706/2806 14006KT P6SM FEW200
     FM271300 19008KT P6SM SCT140
     FM271900 21011G18KT P6SM BKN090
     FM280000 22011KT P6SM SCT080 WS020/24040KT
     FM280100 22012KT 3SM BR SCT080 WS020/24040KT
     FM280300 23012KT P6SM SCT090 WS020/24040KT=



000
FTUS41 KBOX 262024 AAA
TAFPVD
TAF AMD
KPVD 262024Z 2620/2718 16009KT P6SM BKN120
     FM270200 18005KT P6SM BKN120
     FM271100 19004KT P6SM SCT110
     FM271500 19008KT P6SM SCT070=



000
FTUS41 KBOX 261727
TAFACK
TAF
KACK 261727Z 2618/2718 18007KT P6SM FEW090
     FM271500 20011KT P6SM SCT110=



000
FTUS41 KBOX 261727
TAFPVD
TAF
KPVD 261727Z 2618/2718 16009KT P6SM BKN080
     FM270200 18005KT P6SM BKN120
     FM271100 19004KT P6SM SCT110
     FM271500 19008KT P6SM SCT070=



000
FTUS41 KBOX 261727
TAFORH
TAF
KORH 261727Z 2618/2718 23010G16KT P6SM SCT080
     FM262100 19006KT P6SM BKN070
     FM271000 23006KT P6SM BKN100=



000
FTUS41 KBOX 261727
TAFBAF
TAF
KBAF 261727Z 2618/2718 00000KT P6SM SCT070
     FM262000 20005KT P6SM BKN070
     FM270400 00000KT P6SM BKN070
     FM270600 00000KT P6SM SCT090
     FM270900 00000KT P6SM BKN080
     FM271100 00000KT P6SM VCSH BKN080=



000
FTUS41 KBOX 261727
TAFBDL
TAF
KBDL 261727Z 2618/2724 21006KT P6SM SCT080
     FM262000 20006KT P6SM BKN070
     FM270700 16004KT P6SM BKN090
     FM271100 16004KT P6SM VCSH BKN080
     FM271800 19008KT P6SM VCSH SCT050
     FM272000 19008KT P6SM SCT090=



000
FTUS41 KBOX 261727
TAFBOS
TAF
KBOS 261727Z 2618/2724 12012KT P6SM SCT250
     FM262200 13008KT P6SM BKN060
     FM270900 17006KT P6SM BKN110
     FM271300 18006KT P6SM SCT100
     FM271800 15010G18KT P6SM SCT080
     FM272100 19010G22KT P6SM SCT250=



000
FTUS41 KBOX 261126
TAFORH
TAF
KORH 261126Z 2612/2712 29005KT P6SM FEW250
     FM261800 25005KT P6SM BKN070
     FM270600 23004KT P6SM BKN110
     FM271100 22005KT P6SM BKN080=



000
FTUS41 KBOX 261126
TAFACK
TAF
KACK 261126Z 2612/2712 30004KT P6SM FEW090
     FM261700 21006KT P6SM FEW250
     FM262000 17007KT P6SM SCT200=



000
FTUS41 KBOX 261126
TAFBAF
TAF
KBAF 261126Z 2612/2712 00000KT P6SM SCT250
     FM261700 23006KT P6SM SCT080
     FM261900 24007KT P6SM BKN070
     FM270300 VRB03KT P6SM BKN070
      TEMPO 2707/2711 4SM BR
     FM271100 VRB03KT P6SM VCSH BKN060=



000
FTUS41 KBOX 261126
TAFBDL
TAF
KBDL 261126Z 2612/2718 00000KT P6SM FEW090
     FM261500 21006KT P6SM BKN070
     FM271200 18005KT P6SM VCSH BKN060
     FM271400 19006KT P6SM BKN070
     FM271700 20008KT P6SM VCSH SCT050=



000
FTUS41 KBOX 261126
TAFBOS
TAF
KBOS 261126Z 2612/2718 35004KT P6SM FEW250
     FM261400 09007KT P6SM FEW250
     FM261800 10009KT P6SM BKN050
     FM262300 14009KT P6SM BKN070
     FM270600 17007KT P6SM BKN110
     FM271100 18007KT P6SM BKN090=



000
FTUS41 KBOX 261126
TAFPVD
TAF
KPVD 261126Z 2612/2712 VRB03KT P6SM FEW090
     FM261600 16007KT P6SM SCT200
     FM261800 17009KT P6SM BKN200
     FM261900 17010KT P6SM SCT200
     FM262000 18010KT P6SM BKN150
     FM270200 18006KT P6SM BKN120=



000
FTUS41 KBOX 260242 AAA
TAFORH
TAF AMD
KORH 260242Z 2603/2624 27008KT P6SM FEW120
     FM260800 29006KT P6SM SCT150
     FM262000 23006KT P6SM BKN060=



000
FTUS41 KBOX 252320
TAFBOS
TAF
KBOS 252320Z 2600/2706 27008KT P6SM SCT100
     FM260900 31007KT P6SM SKC
     FM261400 02006KT P6SM FEW250
     FM261600 06007KT P6SM SCT250
     FM261800 10008KT P6SM SCT250
     FM262000 12009KT P6SM BKN050
     FM270000 16008KT P6SM BKN060=



000
FTUS41 KBOX 252320
TAFPVD
TAF
KPVD 252320Z 2600/2624 30009KT P6SM FEW050 SCT100
     FM261600 34006KT P6SM SCT250
     FM261700 19006KT P6SM BKN250=



000
FTUS41 KBOX 252320
TAFBAF
TAF
KBAF 252320Z 2600/2624 28006KT P6SM OVC100
     FM262000 21007KT P6SM BKN060=



000
FTUS41 KBOX 252320
TAFACK
TAF
KACK 252320Z 2600/2624 23010KT P6SM SKC
     FM260800 28010KT P6SM SKC
     FM261100 32010KT P6SM FEW250
     FM261600 02007KT P6SM FEW250
     FM261700 12007KT P6SM SKC
     FM261800 16007KT P6SM SKC=



000
FTUS41 KBOX 252320
TAFORH
TAF
KORH 252320Z 2600/2624 30013KT P6SM BKN100
     FM262000 23006KT P6SM BKN060=



000
FTUS41 KBOX 252320
TAFBDL
TAF
KBDL 252320Z 2600/2706 29013KT P6SM BKN100
     FM261200 31004KT P6SM FEW100
     FM261700 24004KT P6SM FEW250
     FM262000 20006KT P6SM BKN060
     FM270400 18005KT P6SM VCSH OVC090=



000
FTUS41 KBOX 250918 AAD
TAFBOS
TAF AMD
KBOS 250918Z 2509/2612 VRB03KT P6SM OVC006
     FM251100 VRB03KT P6SM SCT006 BKN070
     FM251200 24004KT P6SM SCT200
     FM252100 26008KT P6SM SCT150
     FM261100 30006KT P6SM FEW250=



000
FTUS41 KBOX 250918 AAD
TAFBDL
TAF AMD
KBDL 250918Z 2509/2612 00000KT 1/4SM FG OVC002
     FM251100 00000KT 1SM BR OVC003
     FM251200 00000KT 4SM BR SCT005 BKN200
     FM251300 27007KT P6SM FEW200
     FM261100 33004KT P6SM FEW250=



000
FTUS41 KBOX 250918 AAD
TAFPVD
TAF AMD
KPVD 250918Z 2509/2606 VRB03KT P6SM SCT015 OVC025
     FM251000 VRB03KT P6SM BKN030
     FM251200 VRB03KT P6SM SCT030 BKN080
     FM251400 25004KT P6SM SCT150
     FM251700 25008KT P6SM FEW200=



000
FTUS41 KBOX 250632 AAD
TAFACK
TAF AMD
KACK 250632Z 2507/2606 29005KT P6SM OVC008
     FM251000 29007KT P6SM OVC015
     FM251100 28007KT P6SM OVC030
     FM251200 28007KT P6SM BKN040
     FM251400 24008KT P6SM BKN060
     FM251500 23009KT P6SM SCT080
     FM251800 23013KT P6SM FEW250=



000
FTUS41 KBOX 250631 AAC
TAFORH
TAF AMD
KORH 250631Z 2507/2606 VRB03KT 3SM BR SCT001
     FM250900 VRB03KT 2SM BR BKN015
     FM251100 27004KT 4SM BR SCT015 BKN130
     FM251300 27004KT P6SM SCT150
     FM251600 28008KT P6SM FEW200=



000
FTUS41 KBOX 250630 AAC
TAFBOS
TAF AMD
KBOS 250630Z 2507/2612 VRB03KT P6SM OVC004
     FM251100 VRB03KT P6SM SCT006 BKN070
     FM251200 24004KT P6SM SCT200
     FM252100 26008KT P6SM SCT150
     FM261100 30006KT P6SM FEW250=



    US Dept of Commerce
    National Oceanic and Atmospheric Administration
    National Weather Service
    1325 East West Highway
    Silver Spring, MD 20910
    Page Author: NWS Internet Services Team
Disclaimer
Information Quality
Credits
Glossary
Privacy Policy
Freedom of Information Act (FOIA)
About Us
Career Opportunities